Decoded Metar for UUYY (SYKTYVKAR in RUSSIA) (IATA:SCW) | Meteo·Mobile Aviation Weather
aviador You're here:

UUYY Decoded Metar

SYKTYVKAR in RUSSIA
Report Time2019-08-17 22:30:00
UTC Time2019-08-17 23:10:35
Flight Rules lifr LIFR
WindCalm
Visibility0800 m
Phenomena:Fog
Clouds:N/A
CeilingNone
Temp08°C (ISA -6)
Dew Point08°C (100% RH)
AAT7.5°C
QNH1021 hPa
Density Alt-482 ft
Elevation390 ft
Report Wrong Elevation
Raw Report
METAR UUYY 172230Z 00000MPS 1600 0800SW R18/P2000U FG NSC 08/08 Q1021
R18/CLRD61 TEMPO 0300 FG RMK QFE757/1010=

Extra information for UUYY:More info

Metar Taf Metar & Taf Last 4 Metars F.Rules Stats Wind Profile Meteogram Temp Stats Airport Information Weather charts Add Link Nearby VenuesMetar ALERT Operation Metar Decoded Social comments